createdAt,value
2022-10-31T00:00:37.053Z,12.13
2022-10-31T00:03:22.700Z,11.21
2022-10-31T00:06:08.400Z,11.41
2022-10-31T00:08:56.480Z,11.66
2022-10-31T00:11:41.713Z,12.06
2022-10-31T00:14:27.103Z,12.08
2022-10-31T00:17:12.377Z,11.35
2022-10-31T00:19:58.023Z,11.32
2022-10-31T00:22:43.172Z,10.94
2022-10-31T00:25:30.612Z,11.87
2022-10-31T00:28:16.365Z,11.93
2022-10-31T00:31:07.496Z,10.92
2022-10-31T00:33:52.992Z,12.08
2022-10-31T00:36:38.453Z,12.10
2022-10-31T00:39:23.793Z,11.49
2022-10-31T00:42:09.283Z,12.03
2022-10-31T00:44:54.791Z,11.05
2022-10-31T00:47:40.533Z,11.97
2022-10-31T00:50:26.409Z,12.02
2022-10-31T00:53:11.867Z,11.24
2022-10-31T00:55:57.219Z,12.29
2022-10-31T00:58:42.566Z,12.18
2022-10-31T01:01:28.048Z,12.27
2022-10-31T01:04:14.279Z,11.73
2022-10-31T01:06:59.621Z,11.30
2022-10-31T01:09:45.003Z,12.20
2022-10-31T01:12:30.674Z,11.92
2022-10-31T01:15:22.300Z,11.87
2022-10-31T01:18:08.052Z,12.26
2022-10-31T01:21:01.383Z,12.25
2022-10-31T01:23:47.224Z,11.15
2022-10-31T01:26:34.015Z,12.32
2022-10-31T01:29:19.637Z,12.36
2022-10-31T01:32:05.337Z,11.92
2022-10-31T01:34:50.960Z,12.41
2022-10-31T01:37:36.240Z,12.47
2022-10-31T01:40:21.643Z,11.50
2022-10-31T01:43:18.938Z,12.20
2022-10-31T01:46:04.852Z,11.83
2022-10-31T01:48:52.073Z,11.03
2022-10-31T01:51:43.319Z,11.20
2022-10-31T01:54:40.489Z,12.37
2022-10-31T01:57:27.396Z,12.38
2022-10-31T02:00:13.981Z,12.30
2022-10-31T02:03:01.066Z,11.18
2022-10-31T02:05:47.552Z,11.35
2022-10-31T02:08:36.204Z,11.24
2022-10-31T02:11:21.999Z,11.45
2022-10-31T02:14:07.837Z,11.32
2022-10-31T02:16:55.021Z,11.99
2022-10-31T02:19:41.680Z,12.26
2022-10-31T02:22:58.011Z,12.21
2022-10-31T02:25:53.213Z,12.20
2022-10-31T02:29:06.524Z,12.17
2022-10-31T02:32:01.721Z,11.19
2022-10-31T02:35:02.167Z,12.15
2022-10-31T02:38:07.902Z,11.62
2022-10-31T02:41:08.115Z,10.99
2022-10-31T02:44:14.123Z,11.07
2022-10-31T02:47:07.763Z,11.88
2022-10-31T02:50:09.979Z,10.96
2022-10-31T02:52:57.411Z,12.15
2022-10-31T02:55:59.478Z,11.59
2022-10-31T02:58:54.570Z,12.12
2022-10-31T03:02:05.519Z,11.02
2022-10-31T03:05:12.729Z,12.08
2022-10-31T03:08:14.105Z,12.11
2022-10-31T03:11:10.718Z,12.08
2022-10-31T03:14:22.597Z,11.76
2022-10-31T03:17:26.090Z,12.14
2022-10-31T03:20:12.132Z,11.47
2022-10-31T03:22:59.443Z,12.15
2022-10-31T03:25:47.528Z,11.26
2022-10-31T03:28:51.256Z,11.93
2022-10-31T03:31:46.144Z,11.21
2022-10-31T03:34:34.437Z,11.01
2022-10-31T03:37:22.035Z,11.17
2022-10-31T03:40:10.587Z,12.17
2022-10-31T03:43:01.961Z,12.16
2022-10-31T03:45:48.402Z,10.96
2022-10-31T03:48:34.477Z,10.92
2022-10-31T03:51:29.235Z,11.28
2022-10-31T03:54:19.559Z,12.08
2022-10-31T03:57:38.349Z,12.01
2022-10-31T04:00:24.883Z,11.76
2022-10-31T04:03:20.114Z,11.57
2022-10-31T04:06:12.377Z,10.99
2022-10-31T04:09:03.308Z,11.80
2022-10-31T04:11:55.210Z,10.95
2022-10-31T04:15:04.620Z,12.07
2022-10-31T04:17:53.427Z,10.91
2022-10-31T04:20:41.727Z,12.17
2022-10-31T04:23:28.170Z,11.45
2022-10-31T04:26:14.124Z,12.13
2022-10-31T04:29:03.208Z,12.08
2022-10-31T04:31:49.389Z,11.50
2022-10-31T04:34:36.354Z,12.16
2022-10-31T04:37:23.432Z,11.00
2022-10-31T04:40:09.404Z,11.83
2022-10-31T04:43:13.805Z,10.95
2022-10-31T04:46:02.194Z,11.53
2022-10-31T04:48:47.561Z,12.05
2022-10-31T04:51:33.074Z,10.67
2022-10-31T04:54:19.868Z,11.13
2022-10-31T04:57:24.412Z,10.92
2022-10-31T05:00:12.783Z,11.11
2022-10-31T05:02:59.381Z,12.06
2022-10-31T05:05:46.269Z,11.96
2022-10-31T05:08:32.192Z,10.92
2022-10-31T05:11:21.207Z,12.02
2022-10-31T05:14:06.712Z,12.01
2022-10-31T05:17:24.117Z,11.55
2022-10-31T05:20:33.058Z,10.98
2022-10-31T05:23:45.818Z,11.52
2022-10-31T05:26:34.161Z,12.12
2022-10-31T05:29:20.057Z,11.23
2022-10-31T05:32:07.421Z,12.21
2022-10-31T05:35:16.666Z,12.15
2022-10-31T05:38:25.232Z,12.19
2022-10-31T05:41:12.960Z,12.10
2022-10-31T05:44:02.810Z,12.13
2022-10-31T05:46:51.202Z,11.86
2022-10-31T05:49:43.653Z,12.07
2022-10-31T05:53:05.132Z,11.45
2022-10-31T05:55:55.458Z,12.08
2022-10-31T05:58:43.549Z,11.80
2022-10-31T06:01:29.025Z,8.45
2022-10-31T06:04:16.925Z,10.85
2022-10-31T06:07:02.464Z,10.76
2022-10-31T06:09:48.082Z,11.54
2022-10-31T06:12:38.630Z,11.44
2022-10-31T06:15:53.936Z,11.99
2022-10-31T06:18:43.021Z,12.10
2022-10-31T06:21:28.436Z,11.01
2022-10-31T06:24:14.353Z,12.14
2022-10-31T06:27:18.244Z,10.90
2022-10-31T06:30:04.594Z,12.11
2022-10-31T06:32:51.804Z,12.16
2022-10-31T06:35:39.210Z,12.33
2022-10-31T06:38:26.155Z,12.30
2022-10-31T06:41:12.406Z,12.74
2022-10-31T06:44:06.521Z,12.86
2022-10-31T06:47:13.399Z,12.93
2022-10-31T06:50:37.894Z,12.47
2022-10-31T06:53:23.760Z,12.82
2022-10-31T06:56:09.557Z,12.91
2022-10-31T06:59:00.760Z,12.91
2022-10-31T07:02:12.917Z,11.79
2022-10-31T07:05:01.322Z,11.94
2022-10-31T07:07:47.008Z,12.92
2022-10-31T07:10:37.436Z,12.18
2022-10-31T07:13:26.943Z,13.38
2022-10-31T07:16:20.767Z,13.40
2022-10-31T07:19:06.163Z,12.98
2022-10-31T07:21:53.152Z,13.35
2022-10-31T07:24:39.274Z,12.20
2022-10-31T07:27:44.156Z,13.28
2022-10-31T07:30:31.645Z,13.09
2022-10-31T07:33:18.174Z,13.15
2022-10-31T07:36:23.866Z,13.12
2022-10-31T07:39:13.395Z,13.15
2022-10-31T07:42:00.782Z,13.16
2022-10-31T07:44:51.498Z,13.10
2022-10-31T07:48:18.166Z,12.95
2022-10-31T07:51:22.496Z,12.03
2022-10-31T07:54:27.029Z,11.87
2022-10-31T07:57:12.803Z,11.85
2022-10-31T07:59:58.246Z,12.84
2022-10-31T08:02:43.922Z,12.77
2022-10-31T08:05:49.687Z,12.26
2022-10-31T08:08:48.659Z,12.01
2022-10-31T08:11:34.223Z,11.49
2022-10-31T08:14:21.219Z,12.37
2022-10-31T08:17:06.764Z,11.26
2022-10-31T08:20:01.119Z,12.16
2022-10-31T08:23:02.372Z,12.38
2022-10-31T08:25:49.047Z,11.90
2022-10-31T08:28:34.359Z,12.55
2022-10-31T08:31:23.919Z,12.57
2022-10-31T08:34:36.095Z,12.08
2022-10-31T08:37:58.136Z,12.28
2022-10-31T08:40:49.524Z,12.45
2022-10-31T08:43:35.287Z,11.52
2022-10-31T08:46:21.634Z,11.54
2022-10-31T08:49:07.435Z,11.43
2022-10-31T08:51:53.731Z,12.71
2022-10-31T08:54:40.001Z,11.61
2022-10-31T08:57:44.226Z,12.15
2022-10-31T09:00:31.443Z,11.58
2022-10-31T09:03:25.847Z,12.32
2022-10-31T09:06:12.680Z,12.75
2022-10-31T09:08:58.741Z,12.54
2022-10-31T09:11:44.939Z,12.62
2022-10-31T09:14:30.336Z,11.84
2022-10-31T09:17:49.469Z,12.90
2022-10-31T09:21:01.887Z,12.57
2022-10-31T09:23:49.604Z,13.20
2022-10-31T09:26:34.999Z,13.44
2022-10-31T09:29:29.616Z,13.60
2022-10-31T09:32:18.658Z,13.58
2022-10-31T09:35:06.088Z,13.73
2022-10-31T09:38:04.093Z,13.54
2022-10-31T09:40:52.868Z,13.89
2022-10-31T09:43:38.454Z,13.95
2022-10-31T09:46:30.868Z,13.98
2022-10-31T09:49:42.479Z,14.07
2022-10-31T09:52:34.134Z,14.16
2022-10-31T09:55:45.562Z,14.29
2022-10-31T09:58:36.729Z,14.37
2022-10-31T10:01:30.179Z,14.52
2022-10-31T10:04:31.519Z,14.61
2022-10-31T10:07:31.573Z,14.72
2022-10-31T10:10:42.391Z,13.56
2022-10-31T10:14:08.120Z,14.78
2022-10-31T10:17:08.468Z,14.25
2022-10-31T10:20:12.823Z,14.95
2022-10-31T10:23:34.169Z,15.03
2022-10-31T10:26:22.607Z,14.76
2022-10-31T10:29:24.411Z,15.15
2022-10-31T10:32:18.956Z,14.64
2022-10-31T10:35:25.694Z,15.18
2022-10-31T10:38:24.998Z,14.31
2022-10-31T10:41:18.032Z,14.78
2022-10-31T10:44:09.694Z,14.88
2022-10-31T10:47:19.979Z,15.23
2022-10-31T10:50:20.301Z,15.26
2022-10-31T10:53:33.077Z,15.35
2022-10-31T10:56:31.575Z,15.07
2022-10-31T10:59:20.874Z,15.02
2022-10-31T11:02:28.033Z,15.54
2022-10-31T11:05:41.917Z,15.56
2022-10-31T11:08:29.709Z,15.11
2022-10-31T11:11:18.136Z,15.43
2022-10-31T11:14:12.425Z,15.37
2022-10-31T11:17:32.505Z,15.49
2022-10-31T11:20:35.435Z,15.29
2022-10-31T11:23:23.126Z,14.38
2022-10-31T11:26:20.998Z,14.41
2022-10-31T11:29:15.365Z,15.15
2022-10-31T11:32:01.807Z,15.57
2022-10-31T11:34:52.452Z,15.58
2022-10-31T11:37:44.346Z,14.89
2022-10-31T11:40:30.116Z,15.75
2022-10-31T11:43:18.763Z,15.68
2022-10-31T11:46:19.919Z,14.69
2022-10-31T11:49:06.277Z,14.66
2022-10-31T11:51:55.253Z,14.66
2022-10-31T11:54:47.092Z,15.56
2022-10-31T11:57:42.964Z,15.46
2022-10-31T12:00:34.496Z,14.55
2022-10-31T12:03:22.832Z,15.63
2022-10-31T12:06:14.508Z,15.63
2022-10-31T12:09:00.792Z,15.67
2022-10-31T12:12:30.751Z,15.76
2022-10-31T12:15:35.103Z,15.77
2022-10-31T12:18:26.735Z,15.73
2022-10-31T12:21:42.415Z,15.73
2022-10-31T12:25:10.217Z,15.73
2022-10-31T12:28:35.100Z,15.33
2022-10-31T12:31:56.230Z,15.45
2022-10-31T12:34:48.784Z,15.71
2022-10-31T12:38:05.168Z,15.09
2022-10-31T12:41:00.299Z,15.75
2022-10-31T12:44:13.630Z,15.74
2022-10-31T12:47:21.673Z,15.74
2022-10-31T12:50:32.511Z,15.79
2022-10-31T12:53:37.123Z,15.81
2022-10-31T12:56:41.531Z,15.81
2022-10-31T12:59:41.127Z,15.75
2022-10-31T13:02:40.055Z,15.77
2022-10-31T13:05:34.808Z,15.76
2022-10-31T13:08:25.426Z,15.20
2022-10-31T13:11:14.020Z,15.72
2022-10-31T13:14:08.424Z,15.61
2022-10-31T13:16:56.406Z,15.80
2022-10-31T13:19:45.870Z,14.75
2022-10-31T13:22:36.733Z,14.81
2022-10-31T13:25:39.104Z,15.75
2022-10-31T13:28:39.917Z,14.96
2022-10-31T13:31:26.155Z,15.79
2022-10-31T13:34:43.584Z,15.85
2022-10-31T13:37:34.973Z,15.84
2022-10-31T13:40:36.037Z,14.73
2022-10-31T13:43:26.900Z,15.29
2022-10-31T13:46:35.175Z,14.90
2022-10-31T13:49:30.018Z,15.66
2022-10-31T13:52:27.164Z,15.15
2022-10-31T13:55:40.122Z,15.64
2022-10-31T13:58:31.501Z,14.63
2022-10-31T14:01:20.902Z,14.76
2022-10-31T14:04:19.321Z,15.38
2022-10-31T14:07:18.419Z,15.61
2022-10-31T14:10:26.603Z,15.68
2022-10-31T14:13:38.290Z,15.68
2022-10-31T14:16:29.028Z,14.57
2022-10-31T14:19:19.020Z,14.73
2022-10-31T14:22:04.652Z,14.65
2022-10-31T14:24:50.343Z,15.20
2022-10-31T14:27:46.522Z,15.35
2022-10-31T14:30:32.485Z,15.33
2022-10-31T14:33:20.871Z,15.29
2022-10-31T14:36:26.641Z,14.38
2022-10-31T14:39:25.238Z,14.42
2022-10-31T14:42:30.474Z,15.27
2022-10-31T14:45:22.208Z,14.73
2022-10-31T14:48:37.944Z,15.39
2022-10-31T14:51:27.826Z,15.38
2022-10-31T14:54:19.388Z,14.81
2022-10-31T17:09:57.731Z,10.50
2022-10-31T17:12:45.954Z,11.48
2022-10-31T17:15:44.898Z,11.82
2022-10-31T17:18:31.044Z,11.75
2022-10-31T17:21:20.813Z,11.04
2022-10-31T17:24:07.263Z,12.14
2022-10-31T17:26:52.569Z,11.97
2022-10-31T17:29:38.063Z,11.28
2022-10-31T17:32:23.657Z,12.37
2022-10-31T17:35:10.289Z,11.18
2022-10-31T17:37:55.704Z,12.10
2022-10-31T17:40:44.643Z,11.68
2022-10-31T17:43:30.846Z,11.49
2022-10-31T17:46:17.595Z,11.78
2022-10-31T17:49:06.988Z,11.72
2022-10-31T17:51:52.850Z,11.49
2022-10-31T17:54:38.483Z,10.50
2022-10-31T17:57:24.058Z,11.25
2022-10-31T18:00:13.074Z,10.95
2022-10-31T18:02:59.108Z,11.32
2022-10-31T18:05:58.273Z,11.44
2022-10-31T18:08:44.554Z,11.49
2022-10-31T18:11:30.385Z,11.56
2022-10-31T18:14:21.525Z,11.63
2022-10-31T18:17:09.606Z,11.57
2022-10-31T18:19:55.044Z,11.62
2022-10-31T18:22:40.543Z,10.66
2022-10-31T18:25:48.888Z,11.40
2022-10-31T18:28:37.199Z,11.01
2022-10-31T18:31:22.812Z,10.82
2022-10-31T18:34:08.578Z,11.10
2022-10-31T18:36:53.965Z,11.08
2022-10-31T18:39:39.867Z,11.09
2022-10-31T18:42:25.143Z,9.87
2022-10-31T18:45:23.945Z,9.89
2022-10-31T18:48:17.410Z,10.89
2022-10-31T18:51:08.493Z,10.90
2022-10-31T18:54:00.281Z,10.89
2022-10-31T18:56:46.337Z,10.58
2022-10-31T18:59:33.999Z,10.72
2022-10-31T19:02:21.025Z,9.82
2022-10-31T19:05:07.044Z,11.07
2022-10-31T19:07:54.148Z,11.12
2022-10-31T19:10:40.771Z,10.84
2022-10-31T19:13:25.957Z,10.36
2022-10-31T19:16:15.534Z,11.11
2022-10-31T19:19:01.516Z,11.03
2022-10-31T19:21:47.617Z,10.64
2022-10-31T19:24:32.924Z,9.87
2022-10-31T19:27:18.809Z,10.79
2022-10-31T19:30:08.444Z,10.93
2022-10-31T19:32:55.918Z,10.84
2022-10-31T19:35:41.481Z,10.87
2022-10-31T19:38:31.336Z,10.05
2022-10-31T19:41:20.139Z,10.60
2022-10-31T19:44:05.604Z,10.83
2022-10-31T19:46:54.346Z,10.82
2022-10-31T19:49:40.155Z,10.72
2022-10-31T19:52:25.799Z,10.62
2022-10-31T19:55:11.337Z,10.49
2022-10-31T19:58:01.744Z,10.57
2022-10-31T20:00:48.924Z,10.28
2022-10-31T20:03:34.845Z,9.49
2022-10-31T20:06:25.178Z,10.61
2022-10-31T20:09:14.061Z,10.52
2022-10-31T20:11:59.331Z,10.14
2022-10-31T20:14:45.055Z,9.91
2022-10-31T20:17:30.461Z,9.86
2022-10-31T20:20:16.098Z,10.06
2022-10-31T20:23:02.172Z,9.09
2022-10-31T20:25:49.513Z,9.85
2022-10-31T20:28:38.830Z,9.99
2022-10-31T20:31:28.826Z,9.96
2022-10-31T20:34:15.527Z,9.96
2022-10-31T20:37:01.410Z,9.97
2022-10-31T20:39:46.808Z,9.36
2022-10-31T20:42:32.514Z,9.95
2022-10-31T20:45:17.879Z,9.78
2022-10-31T20:48:04.570Z,8.83
2022-10-31T20:50:50.479Z,10.03
2022-10-31T20:53:35.751Z,10.00
2022-10-31T20:56:23.621Z,10.04
2022-10-31T20:59:09.638Z,10.02
2022-10-31T21:01:55.387Z,9.84
2022-10-31T21:04:40.986Z,9.76
2022-10-31T21:07:26.204Z,10.03
2022-10-31T21:10:17.566Z,9.78
2022-10-31T21:13:04.494Z,10.00
2022-10-31T21:16:05.430Z,10.03
2022-10-31T21:18:51.842Z,9.71
2022-10-31T21:21:37.788Z,9.97
2022-10-31T21:24:23.259Z,9.97
2022-10-31T21:27:11.655Z,9.92
2022-10-31T21:29:58.519Z,9.47
2022-10-31T21:32:43.916Z,9.83
2022-10-31T21:35:29.515Z,9.85
2022-10-31T21:38:14.896Z,9.71
2022-10-31T21:41:05.379Z,9.46
2022-10-31T21:43:54.224Z,9.60
2022-10-31T21:46:40.010Z,8.90
2022-10-31T21:49:25.651Z,8.70
2022-10-31T21:52:11.150Z,8.59
2022-10-31T21:54:56.998Z,9.39
2022-10-31T21:57:42.600Z,9.51
2022-10-31T22:00:28.208Z,9.47
2022-10-31T22:03:13.410Z,9.25
2022-10-31T22:06:03.007Z,9.52
2022-10-31T22:08:48.831Z,8.34
2022-10-31T22:11:35.135Z,9.50
2022-10-31T22:14:20.837Z,9.47
2022-10-31T22:17:06.566Z,8.19
2022-10-31T22:19:52.538Z,9.33
2022-10-31T22:22:37.914Z,9.32
2022-10-31T22:25:24.500Z,9.31
2022-10-31T22:28:09.720Z,9.27
2022-10-31T22:30:55.620Z,9.30
2022-10-31T22:33:41.196Z,8.27
2022-10-31T22:36:28.562Z,9.03
2022-10-31T22:39:14.266Z,8.68
2022-10-31T22:42:00.036Z,8.49
2022-10-31T22:44:45.226Z,7.87
2022-10-31T22:47:31.132Z,8.88
2022-10-31T22:50:16.370Z,8.65
2022-10-31T22:53:01.766Z,8.86
2022-10-31T22:55:50.065Z,7.66
2022-10-31T22:58:35.905Z,7.58
2022-10-31T23:01:26.977Z,7.65
2022-10-31T23:04:13.889Z,8.88
2022-10-31T23:06:59.112Z,7.63
2022-10-31T23:09:44.912Z,8.86
2022-10-31T23:12:56.826Z,8.92
2022-10-31T23:15:42.738Z,8.92
2022-10-31T23:18:48.411Z,8.65
2022-10-31T23:21:59.562Z,8.84
2022-10-31T23:24:47.220Z,8.88
2022-10-31T23:27:32.754Z,7.82
2022-10-31T23:30:18.076Z,8.70
2022-10-31T23:33:03.668Z,8.53
2022-10-31T23:35:48.990Z,7.48
2022-10-31T23:38:35.364Z,8.64
2022-10-31T23:41:20.554Z,7.68
2022-10-31T23:44:06.255Z,8.05
2022-10-31T23:46:51.546Z,8.26
2022-10-31T23:49:36.952Z,7.97
2022-10-31T23:52:22.242Z,8.63
2022-10-31T23:55:08.085Z,7.61
2022-10-31T23:57:53.433Z,7.30
